Portada
METAR-TAF:

METAR-TAF

Aeroports :

Angeles, Filipines

latitud: 15-11N, longitud: 120-33E, altitud: 148 m

Observació

L'informe es va fer fa 24 minuts, a les 12:00 UTC
Vent 2 kt del Sud-Est
Temperatura 30°C
Humitat 62%
Pressió 1011 hPa
Visibilitat 10 km o més
Escasses núvols a una alçada de 2000 ft
Cel ennuvolat a una alçada de 30000 ft

METAR: RPLC 141200Z 14002KT 9999 FEW020 BKN300 30/22 Q1011 NOSIG RMK A2985

Hora: 20:24 (12:24 UTC)

Pronòstic

L'informe es va fer fa 1 hora i 24 minuts, a les 11:00 UTC
Pronòstic vàlid del 14 a les 12 UTC al 15 a les 18 UTC
Vent 8 kt del Est
Visibilitat 10 km o més
Escasses núvols a una alçada de 2000 ft
Núvols disperses a una alçada de 30000 ft
Temporalment
l' 14 a les 12 UTC al 14 a les 18 UTC
Vent 6 kt del Oest/Sud-Oest
Escasses núvols a una alçada de 2000 ft
Cel ennuvolat a una alçada de 30000 ft

TAF: RPLC 141100Z 1412/1518 09008KT 9999 FEW020 SCT300 TX36/1506Z TN26/1422Z TEMPO 1412/1418 25006KT FEW020 BKN300

Observacions i pronòstics meteorològics de més de 4000 aeroports (METAR i TAF).

Les estacions disponibles són els punts grocs i vermells al mapa.

Posi el ratolí al punt desitjat per veure el nom de l'estació.

Feu clic per veure les observacions i els pronòstics meteorològics.

Per canviar el mapa: feu clic els botons verds amb una creu de color negre per apropar; al botó verd amb un guió per allunyar la imatge; o en les fletxes verdes per a mapes adjacents.


METAR-TAF: